PWSweather.com
Personal Weather Stations
Station Observations
KNCGREEN1000
Bell Orchard Drive, Greensboro, NC 27455

Bell Orchard DriveGreensboro, NC 27455

Lat: 36.132, Lon: -79.8

Elevation: 876

Station Type: Acurite Atlas

Http://www.gilhutcheson.com

High Low Average
Temperature 46.6°F8.1°C 38.9°F3.8°C 42.9°F6.1°C
Dew Point 42.1°F5.6°C 28.1°F-2.2°C 31.9°F-0.1°C
Winds 21.0 mph 33.8 kmh 1.0 mph 1.6 kmh 6.0 mph SW9.7 kmh SW
Wind Gusts -- -- --
Humidity 85% 52% 66%
Pressure 29.90 in1012.5 mb 29.60 in1002.4 mb -
Precipitation 0.01 in0.3 mm - -
Hour Temp Dew Point Humidity Winds Wind Gusts Pressure Precip Precip Rate Daily Precip Total
12:04 AM 46.4°F8.0°C 42.1°F5.6°C 85% 4.0 mph WNW6.4 kmh WNW -- 29.60 in1002.4 mb 0.00 in0.0 mm 0.00 in0.0 mm 0.00 in0.0 mm
12:09 AM 46.5°F8.1°C 41.6°F5.3°C 83% 6.0 mph WNW9.7 kmh WNW -- 29.60 in1002.4 mb 0.00 in0.0 mm 0.00 in0.0 mm 0.00 in0.0 mm
12:14 AM 46.6°F8.1°C 41.3°F5.2°C 82% 3.0 mph N4.8 kmh N -- 29.60 in1002.4 mb 0.00 in0.0 mm 0.00 in0.0 mm 0.00 in0.0 mm
12:19 AM 46.6°F8.1°C 41.3°F5.2°C 82% 7.0 mph NW11.3 kmh NW -- 29.60 in1002.4 mb 0.00 in0.0 mm 0.00 in0.0 mm 0.00 in0.0 mm
12:24 AM 46.4°F8.0°C 41.1°F5.1°C 82% 7.0 mph WNW11.3 kmh WNW -- 29.60 in1002.4 mb 0.00 in0.0 mm 0.00 in0.0 mm 0.00 in0.0 mm
12:29 AM 46.3°F7.9°C 41.0°F5.0°C 82% 5.0 mph N8.0 kmh N -- 29.60 in1002.4 mb 0.00 in0.0 mm 0.00 in0.0 mm 0.00 in0.0 mm
12:34 AM 46.1°F7.8°C 40.5°F4.7°C 81% 4.0 mph NW6.4 kmh NW -- 29.60 in1002.4 mb 0.00 in0.0 mm 0.00 in0.0 mm 0.00 in0.0 mm
12:39 AM 46.2°F7.9°C 41.0°F5.0°C 82% 2.0 mph WNW3.2 kmh WNW -- 29.60 in1002.4 mb 0.00 in0.0 mm 0.00 in0.0 mm 0.00 in0.0 mm
12:44 AM 46.1°F7.8°C 41.4°F5.2°C 84% 3.0 mph NE4.8 kmh NE -- 29.60 in1002.4 mb 0.00 in0.0 mm 0.00 in0.0 mm 0.00 in0.0 mm
12:49 AM 45.8°F7.7°C 40.3°F4.6°C 81% 3.0 mph WSW4.8 kmh WSW -- 29.60 in1002.4 mb 0.00 in0.0 mm 0.00 in0.0 mm 0.00 in0.0 mm
12:54 AM 46.0°F7.8°C 40.8°F4.9°C 82% 5.0 mph NNE8.0 kmh NNE -- 29.61 in1002.7 mb 0.00 in0.0 mm 0.00 in0.0 mm 0.00 in0.0 mm
12:59 AM 46.0°F7.8°C 40.8°F4.9°C 82% 4.0 mph N6.4 kmh N -- 29.60 in1002.4 mb 0.00 in0.0 mm 0.00 in0.0 mm 0.00 in0.0 mm
01:04 AM 45.8°F7.7°C 40.3°F4.6°C 81% 3.0 mph NNE4.8 kmh NNE -- 29.60 in1002.4 mb 0.00 in0.0 mm 0.00 in0.0 mm 0.00 in0.0 mm
01:09 AM 45.9°F7.7°C 40.6°F4.8°C 82% 4.0 mph NNW6.4 kmh NNW -- 29.60 in1002.4 mb 0.00 in0.0 mm 0.00 in0.0 mm 0.00 in0.0 mm
01:14 AM 45.9°F7.7°C 40.3°F4.6°C 81% 4.0 mph N6.4 kmh N -- 29.60 in1002.4 mb 0.00 in0.0 mm 0.00 in0.0 mm 0.00 in0.0 mm
01:19 AM 45.7°F7.6°C 39.8°F4.3°C 80% 2.0 mph ENE3.2 kmh ENE -- 29.60 in1002.4 mb 0.00 in0.0 mm 0.00 in0.0 mm 0.00 in0.0 mm
01:24 AM 45.7°F7.6°C 40.1°F4.5°C 81% 4.0 mph NW6.4 kmh NW -- 29.60 in1002.4 mb 0.00 in0.0 mm 0.00 in0.0 mm 0.00 in0.0 mm
01:29 AM 45.6°F7.6°C 40.1°F4.5°C 81% 3.0 mph NE4.8 kmh NE -- 29.60 in1002.4 mb 0.00 in0.0 mm 0.00 in0.0 mm 0.00 in0.0 mm
01:34 AM 45.6°F7.6°C 40.4°F4.7°C 82% 2.0 mph NNW3.2 kmh NNW -- 29.60 in1002.4 mb 0.00 in0.0 mm 0.00 in0.0 mm 0.00 in0.0 mm
01:39 AM 45.4°F7.4°C 39.8°F4.3°C 81% 3.0 mph NW4.8 kmh NW -- 29.60 in1002.4 mb 0.00 in0.0 mm 0.00 in0.0 mm 0.00 in0.0 mm
01:44 AM 45.4°F7.4°C 39.8°F4.3°C 81% 8.0 mph NNW12.9 kmh NNW -- 29.61 in1002.7 mb 0.00 in0.0 mm 0.00 in0.0 mm 0.00 in0.0 mm
01:49 AM 45.5°F7.5°C 39.6°F4.2°C 80% 1.0 mph S1.6 kmh S -- 29.61 in1002.7 mb 0.00 in0.0 mm 0.00 in0.0 mm 0.00 in0.0 mm
01:54 AM 45.4°F7.4°C 39.1°F3.9°C 79% 3.0 mph WNW4.8 kmh WNW -- 29.62 in1003.0 mb 0.00 in0.0 mm 0.00 in0.0 mm 0.00 in0.0 mm
01:59 AM 45.3°F7.4°C 39.1°F3.9°C 79% 1.0 mph N1.6 kmh N -- 29.62 in1003.0 mb 0.00 in0.0 mm 0.00 in0.0 mm 0.00 in0.0 mm
02:04 AM 45.5°F7.5°C 39.6°F4.2°C 80% 4.0 mph ENE6.4 kmh ENE -- 29.62 in1003.0 mb 0.00 in0.0 mm 0.00 in0.0 mm 0.00 in0.0 mm
02:09 AM 45.3°F7.4°C 39.4°F4.1°C 80% 2.0 mph ENE3.2 kmh ENE -- 29.63 in1003.4 mb 0.00 in0.0 mm 0.00 in0.0 mm 0.00 in0.0 mm
02:14 AM 45.2°F7.3°C 38.6°F3.7°C 78% 2.0 mph NE3.2 kmh NE -- 29.63 in1003.4 mb 0.00 in0.0 mm 0.00 in0.0 mm 0.00 in0.0 mm
02:19 AM 45.3°F7.4°C 37.8°F3.2°C 75% 4.0 mph NW6.4 kmh NW -- 29.63 in1003.4 mb 0.00 in0.0 mm 0.00 in0.0 mm 0.00 in0.0 mm
02:24 AM 45.5°F7.5°C 38.3°F3.5°C 76% 7.0 mph WNW11.3 kmh WNW -- 29.63 in1003.4 mb 0.00 in0.0 mm 0.00 in0.0 mm 0.00 in0.0 mm
02:34 AM 45.4°F7.4°C 37.4°F3.0°C 74% 6.0 mph N9.7 kmh N -- 29.63 in1003.4 mb 0.00 in0.0 mm 0.00 in0.0 mm 0.00 in0.0 mm
02:39 AM 45.4°F7.4°C 37.1°F2.8°C 73% 3.0 mph N4.8 kmh N -- 29.64 in1003.7 mb 0.00 in0.0 mm 0.00 in0.0 mm 0.00 in0.0 mm
02:44 AM 45.6°F7.6°C 37.1°F2.8°C 72% 12.0 mph N19.3 kmh N -- 29.64 in1003.7 mb 0.00 in0.0 mm 0.00 in0.0 mm 0.00 in0.0 mm
02:49 AM 45.7°F7.6°C 35.6°F2.0°C 68% 7.0 mph W11.3 kmh W -- 29.64 in1003.7 mb 0.00 in0.0 mm 0.00 in0.0 mm 0.00 in0.0 mm
02:54 AM 45.8°F7.7°C 35.8°F2.1°C 68% 9.0 mph WNW14.5 kmh WNW -- 29.65 in1004.1 mb 0.00 in0.0 mm 0.00 in0.0 mm 0.00 in0.0 mm
02:59 AM 45.8°F7.7°C 34.6°F1.4°C 65% 12.0 mph NNW19.3 kmh NNW -- 29.65 in1004.1 mb 0.00 in0.0 mm 0.00 in0.0 mm 0.00 in0.0 mm
03:04 AM 45.8°F7.7°C 34.6°F1.4°C 65% 6.0 mph NNW9.7 kmh NNW -- 29.65 in1004.1 mb 0.00 in0.0 mm 0.00 in0.0 mm 0.00 in0.0 mm
03:09 AM 45.7°F7.6°C 34.9°F1.6°C 66% 16.0 mph NNE25.7 kmh NNE -- 29.65 in1004.1 mb 0.00 in0.0 mm 0.00 in0.0 mm 0.00 in0.0 mm
03:14 AM 45.6°F7.6°C 35.2°F1.8°C 67% 6.0 mph N9.7 kmh N -- 29.65 in1004.1 mb 0.00 in0.0 mm 0.00 in0.0 mm 0.00 in0.0 mm
03:19 AM 45.5°F7.5°C 35.4°F1.9°C 68% 8.0 mph NE12.9 kmh NE -- 29.65 in1004.1 mb 0.00 in0.0 mm 0.00 in0.0 mm 0.00 in0.0 mm
03:24 AM 45.2°F7.3°C 35.5°F1.9°C 69% 7.0 mph NNW11.3 kmh NNW -- 29.65 in1004.1 mb 0.00 in0.0 mm 0.00 in0.0 mm 0.00 in0.0 mm
03:29 AM 45.1°F7.3°C 35.5°F1.9°C 69% 6.0 mph NNE9.7 kmh NNE -- 29.65 in1004.1 mb 0.00 in0.0 mm 0.00 in0.0 mm 0.00 in0.0 mm
03:34 AM 44.9°F7.2°C 35.7°F2.1°C 70% 4.0 mph NNW6.4 kmh NNW -- 29.66 in1004.4 mb 0.00 in0.0 mm 0.00 in0.0 mm 0.00 in0.0 mm
03:39 AM 44.8°F7.1°C 35.1°F1.7°C 69% 7.0 mph NW11.3 kmh NW -- 29.66 in1004.4 mb 0.00 in0.0 mm 0.00 in0.0 mm 0.00 in0.0 mm
03:44 AM 44.5°F6.9°C 35.9°F2.2°C 72% 4.0 mph NNE6.4 kmh NNE -- 29.66 in1004.4 mb 0.00 in0.0 mm 0.00 in0.0 mm 0.00 in0.0 mm
03:49 AM 44.4°F6.9°C 35.5°F1.9°C 71% 7.0 mph NNE11.3 kmh NNE -- 29.66 in1004.4 mb 0.00 in0.0 mm 0.00 in0.0 mm 0.00 in0.0 mm
03:54 AM 44.3°F6.8°C 35.7°F2.1°C 72% 6.0 mph NNE9.7 kmh NNE -- 29.67 in1004.7 mb 0.00 in0.0 mm 0.00 in0.0 mm 0.00 in0.0 mm
03:59 AM 44.0°F6.7°C 35.9°F2.2°C 73% 4.0 mph N6.4 kmh N -- 29.67 in1004.7 mb 0.00 in0.0 mm 0.00 in0.0 mm 0.00 in0.0 mm
04:04 AM 43.7°F6.5°C 35.9°F2.2°C 74% 6.0 mph N9.7 kmh N -- 29.67 in1004.7 mb 0.00 in0.0 mm 0.00 in0.0 mm 0.00 in0.0 mm
04:09 AM 43.6°F6.4°C 35.7°F2.1°C 74% 3.0 mph W4.8 kmh W -- 29.67 in1004.7 mb 0.00 in0.0 mm 0.00 in0.0 mm 0.00 in0.0 mm
04:14 AM 43.0°F6.1°C 35.5°F1.9°C 75% 5.0 mph W8.0 kmh W -- 29.68 in1005.1 mb 0.00 in0.0 mm 0.00 in0.0 mm 0.00 in0.0 mm
04:19 AM 42.7°F5.9°C 35.2°F1.8°C 75% 5.0 mph WNW8.0 kmh WNW -- 29.68 in1005.1 mb 0.00 in0.0 mm 0.00 in0.0 mm 0.00 in0.0 mm
04:24 AM 42.6°F5.9°C 35.2°F1.8°C 75% 2.0 mph W3.2 kmh W -- 29.68 in1005.1 mb 0.00 in0.0 mm 0.00 in0.0 mm 0.00 in0.0 mm
04:29 AM 42.3°F5.7°C 35.5°F1.9°C 77% 2.0 mph NW3.2 kmh NW -- 29.68 in1005.1 mb 0.00 in0.0 mm 0.00 in0.0 mm 0.00 in0.0 mm
04:34 AM 41.8°F5.4°C 35.3°F1.8°C 78% 5.0 mph WNW8.0 kmh WNW -- 29.68 in1005.1 mb 0.00 in0.0 mm 0.00 in0.0 mm 0.00 in0.0 mm
04:39 AM 41.6°F5.3°C 34.5°F1.4°C 76% 2.0 mph SW3.2 kmh SW -- 29.68 in1005.1 mb 0.00 in0.0 mm 0.00 in0.0 mm 0.00 in0.0 mm
04:44 AM 41.5°F5.3°C 34.5°F1.4°C 76% 2.0 mph E3.2 kmh E -- 29.68 in1005.1 mb 0.00 in0.0 mm 0.00 in0.0 mm 0.00 in0.0 mm
04:49 AM 41.4°F5.2°C 33.9°F1.1°C 75% 6.0 mph 9.7 kmh -- 29.68 in1005.1 mb 0.00 in0.0 mm 0.00 in0.0 mm 0.00 in0.0 mm
04:54 AM 41.4°F5.2°C 33.3°F0.7°C 73% 1.0 mph SE1.6 kmh SE -- 29.68 in1005.1 mb 0.00 in0.0 mm 0.00 in0.0 mm 0.00 in0.0 mm
04:59 AM 41.2°F5.1°C 33.8°F1.0°C 75% 2.0 mph NW3.2 kmh NW -- 29.68 in1005.1 mb 0.00 in0.0 mm 0.00 in0.0 mm 0.00 in0.0 mm
05:04 AM 40.8°F4.9°C 33.1°F0.6°C 74% 7.0 mph W11.3 kmh W -- 29.67 in1004.7 mb 0.00 in0.0 mm 0.00 in0.0 mm 0.00 in0.0 mm
05:09 AM 40.6°F4.8°C 32.9°F0.5°C 74% 4.0 mph NW6.4 kmh NW -- 29.68 in1005.1 mb 0.00 in0.0 mm 0.00 in0.0 mm 0.00 in0.0 mm
05:14 AM 40.5°F4.7°C 32.7°F0.4°C 74% 4.0 mph NW6.4 kmh NW -- 29.68 in1005.1 mb 0.00 in0.0 mm 0.00 in0.0 mm 0.00 in0.0 mm
05:19 AM 40.5°F4.7°C 32.4°F0.2°C 73% 7.0 mph NNW11.3 kmh NNW -- 29.68 in1005.1 mb 0.00 in0.0 mm 0.00 in0.0 mm 0.00 in0.0 mm
05:24 AM 40.3°F4.6°C 32.9°F0.5°C 75% 4.0 mph NNW6.4 kmh NNW -- 29.68 in1005.1 mb 0.00 in0.0 mm 0.00 in0.0 mm 0.00 in0.0 mm
05:29 AM 40.1°F4.5°C 32.4°F0.2°C 74% 4.0 mph N6.4 kmh N -- 29.68 in1005.1 mb 0.00 in0.0 mm 0.00 in0.0 mm 0.00 in0.0 mm
05:34 AM 40.0°F4.4°C 32.2°F0.1°C 74% 3.0 mph WNW4.8 kmh WNW -- 29.68 in1005.1 mb 0.00 in0.0 mm 0.00 in0.0 mm 0.00 in0.0 mm
05:39 AM 40.0°F4.4°C 32.2°F0.1°C 74% 3.0 mph NE4.8 kmh NE -- 29.69 in1005.4 mb 0.00 in0.0 mm 0.00 in0.0 mm 0.00 in0.0 mm
05:44 AM 39.9°F4.4°C 32.5°F0.3°C 75% 2.0 mph NE3.2 kmh NE -- 29.69 in1005.4 mb 0.00 in0.0 mm 0.00 in0.0 mm 0.00 in0.0 mm
05:49 AM 39.3°F4.1°C 32.7°F0.4°C 77% 2.0 mph W3.2 kmh W -- 29.68 in1005.1 mb 0.00 in0.0 mm 0.00 in0.0 mm 0.00 in0.0 mm
05:54 AM 38.9°F3.8°C 32.2°F0.1°C 77% 3.0 mph ESE4.8 kmh ESE -- 29.69 in1005.4 mb 0.00 in0.0 mm 0.00 in0.0 mm 0.00 in0.0 mm
05:59 AM 39.0°F3.9°C 32.0°F0.0°C 76% 3.0 mph SW4.8 kmh SW -- 29.69 in1005.4 mb 0.00 in0.0 mm 0.00 in0.0 mm 0.00 in0.0 mm
06:04 AM 39.4°F4.1°C 32.0°F0.0°C 75% 4.0 mph W6.4 kmh W -- 29.69 in1005.4 mb 0.00 in0.0 mm 0.00 in0.0 mm 0.00 in0.0 mm
06:09 AM 39.6°F4.2°C 32.2°F0.1°C 75% 4.0 mph NNE6.4 kmh NNE -- 29.69 in1005.4 mb 0.00 in0.0 mm 0.00 in0.0 mm 0.00 in0.0 mm
06:14 AM 39.5°F4.2°C 31.9°F-0.1°C 74% 7.0 mph NNW11.3 kmh NNW -- 29.70 in1005.8 mb 0.00 in0.0 mm 0.00 in0.0 mm 0.00 in0.0 mm
06:19 AM 39.7°F4.3°C 31.7°F-0.2°C 73% 4.0 mph N6.4 kmh N -- 29.70 in1005.8 mb 0.00 in0.0 mm 0.00 in0.0 mm 0.00 in0.0 mm
06:24 AM 39.5°F4.2°C 31.9°F-0.1°C 74% 3.0 mph S4.8 kmh S -- 29.70 in1005.8 mb 0.00 in0.0 mm 0.00 in0.0 mm 0.00 in0.0 mm
06:29 AM 39.6°F4.2°C 31.9°F-0.1°C 74% 6.0 mph NW9.7 kmh NW -- 29.70 in1005.8 mb 0.00 in0.0 mm 0.00 in0.0 mm 0.00 in0.0 mm
06:34 AM 39.6°F4.2°C 31.5°F-0.3°C 73% 4.0 mph W6.4 kmh W -- 29.70 in1005.8 mb 0.00 in0.0 mm 0.00 in0.0 mm 0.00 in0.0 mm
06:39 AM 39.5°F4.2°C 32.2°F0.1°C 75% 3.0 mph NW4.8 kmh NW -- 29.71 in1006.1 mb 0.00 in0.0 mm 0.00 in0.0 mm 0.00 in0.0 mm
06:44 AM 39.3°F4.1°C 31.7°F-0.2°C 74% 9.0 mph N14.5 kmh N -- 29.71 in1006.1 mb 0.00 in0.0 mm 0.00 in0.0 mm 0.00 in0.0 mm
06:49 AM 39.4°F4.1°C 31.7°F-0.2°C 74% 5.0 mph W8.0 kmh W -- 29.71 in1006.1 mb 0.00 in0.0 mm 0.00 in0.0 mm 0.00 in0.0 mm
06:54 AM 39.4°F4.1°C 31.7°F-0.2°C 74% 2.0 mph NE3.2 kmh NE -- 29.72 in1006.4 mb 0.00 in0.0 mm 0.00 in0.0 mm 0.00 in0.0 mm
06:59 AM 39.2°F4.0°C 31.9°F-0.1°C 75% 3.0 mph NW4.8 kmh NW -- 29.72 in1006.4 mb 0.00 in0.0 mm 0.00 in0.0 mm 0.00 in0.0 mm
07:04 AM 39.4°F4.1°C 31.7°F-0.2°C 74% 6.0 mph 9.7 kmh -- 29.72 in1006.4 mb 0.00 in0.0 mm 0.00 in0.0 mm 0.00 in0.0 mm
07:09 AM 39.5°F4.2°C 31.5°F-0.3°C 73% 6.0 mph NW9.7 kmh NW -- 29.72 in1006.4 mb 0.00 in0.0 mm 0.00 in0.0 mm 0.00 in0.0 mm
07:14 AM 39.5°F4.2°C 31.9°F-0.1°C 74% 3.0 mph NW4.8 kmh NW -- 29.73 in1006.8 mb 0.00 in0.0 mm 0.00 in0.0 mm 0.00 in0.0 mm
07:19 AM 39.5°F4.2°C 31.5°F-0.3°C 73% 7.0 mph N11.3 kmh N -- 29.73 in1006.8 mb 0.00 in0.0 mm 0.00 in0.0 mm 0.00 in0.0 mm
07:24 AM 39.6°F4.2°C 31.5°F-0.3°C 73% 4.0 mph NNW6.4 kmh NNW -- 29.73 in1006.8 mb 0.00 in0.0 mm 0.00 in0.0 mm 0.00 in0.0 mm
07:29 AM 39.9°F4.4°C 31.5°F-0.3°C 72% 7.0 mph NNW11.3 kmh NNW -- 29.73 in1006.8 mb 0.00 in0.0 mm 0.00 in0.0 mm 0.00 in0.0 mm
07:34 AM 40.0°F4.4°C 31.5°F-0.3°C 72% 7.0 mph NNW11.3 kmh NNW -- 29.73 in1006.8 mb 0.00 in0.0 mm 0.00 in0.0 mm 0.00 in0.0 mm
07:39 AM 40.0°F4.4°C 31.9°F-0.1°C 73% 6.0 mph N9.7 kmh N -- 29.73 in1006.8 mb 0.00 in0.0 mm 0.00 in0.0 mm 0.00 in0.0 mm
07:44 AM 40.0°F4.4°C 31.9°F-0.1°C 73% 5.0 mph NW8.0 kmh NW -- 29.73 in1006.8 mb 0.00 in0.0 mm 0.00 in0.0 mm 0.00 in0.0 mm
07:49 AM 40.1°F4.5°C 31.7°F-0.2°C 72% 2.0 mph NNE3.2 kmh NNE -- 29.74 in1007.1 mb 0.00 in0.0 mm 0.00 in0.0 mm 0.00 in0.0 mm
07:54 AM 40.1°F4.5°C 32.0°F0.0°C 73% 5.0 mph NW8.0 kmh NW -- 29.74 in1007.1 mb 0.00 in0.0 mm 0.00 in0.0 mm 0.00 in0.0 mm
07:59 AM 40.0°F4.4°C 31.5°F-0.3°C 72% 3.0 mph NW4.8 kmh NW -- 29.74 in1007.1 mb 0.00 in0.0 mm 0.00 in0.0 mm 0.00 in0.0 mm
08:04 AM 40.1°F4.5°C 31.7°F-0.2°C 72% 4.0 mph WSW6.4 kmh WSW -- 29.74 in1007.1 mb 0.00 in0.0 mm 0.00 in0.0 mm 0.00 in0.0 mm
08:09 AM 40.2°F4.6°C 31.9°F-0.1°C 72% 3.0 mph W4.8 kmh W -- 29.74 in1007.1 mb 0.00 in0.0 mm 0.00 in0.0 mm 0.00 in0.0 mm
08:14 AM 40.2°F4.6°C 31.9°F-0.1°C 72% 3.0 mph SW4.8 kmh SW -- 29.75 in1007.5 mb 0.00 in0.0 mm 0.00 in0.0 mm 0.00 in0.0 mm
08:19 AM 40.2°F4.6°C 31.9°F-0.1°C 72% 6.0 mph NW9.7 kmh NW -- 29.74 in1007.1 mb 0.00 in0.0 mm 0.00 in0.0 mm 0.00 in0.0 mm
08:24 AM 40.3°F4.6°C 31.9°F-0.1°C 72% 3.0 mph WNW4.8 kmh WNW -- 29.75 in1007.5 mb 0.00 in0.0 mm 0.00 in0.0 mm 0.00 in0.0 mm
08:29 AM 40.4°F4.7°C 32.0°F0.0°C 72% 8.0 mph NW12.9 kmh NW -- 29.75 in1007.5 mb 0.00 in0.0 mm 0.00 in0.0 mm 0.00 in0.0 mm
08:34 AM 40.7°F4.8°C 31.9°F-0.1°C 71% 6.0 mph NNE9.7 kmh NNE -- 29.75 in1007.5 mb 0.00 in0.0 mm 0.00 in0.0 mm 0.00 in0.0 mm
08:39 AM 41.0°F5.0°C 31.5°F-0.3°C 69% 8.0 mph NNE12.9 kmh NNE -- 29.75 in1007.5 mb 0.00 in0.0 mm 0.00 in0.0 mm 0.00 in0.0 mm
08:44 AM 41.4°F5.2°C 31.1°F-0.5°C 67% 10.0 mph NNW16.1 kmh NNW -- 29.75 in1007.5 mb 0.00 in0.0 mm 0.00 in0.0 mm 0.00 in0.0 mm
08:49 AM 41.6°F5.3°C 31.3°F-0.4°C 67% 3.0 mph WSW4.8 kmh WSW -- 29.75 in1007.5 mb 0.00 in0.0 mm 0.00 in0.0 mm 0.00 in0.0 mm
08:54 AM 41.7°F5.4°C 31.4°F-0.3°C 67% 5.0 mph N8.0 kmh N -- 29.76 in1007.8 mb 0.00 in0.0 mm 0.00 in0.0 mm 0.00 in0.0 mm
08:59 AM 41.6°F5.3°C 31.3°F-0.4°C 67% 9.0 mph WSW14.5 kmh WSW -- 29.76 in1007.8 mb 0.00 in0.0 mm 0.00 in0.0 mm 0.00 in0.0 mm
09:04 AM 41.8°F5.4°C 31.1°F-0.5°C 66% 5.0 mph NW8.0 kmh NW -- 29.76 in1007.8 mb 0.00 in0.0 mm 0.00 in0.0 mm 0.00 in0.0 mm
09:09 AM 41.9°F5.5°C 32.7°F0.4°C 70% 3.0 mph N4.8 kmh N -- 29.76 in1007.8 mb 0.00 in0.0 mm 0.00 in0.0 mm 0.00 in0.0 mm
09:14 AM 42.1°F5.6°C 31.8°F-0.1°C 67% 8.0 mph NNW12.9 kmh NNW -- 29.76 in1007.8 mb 0.00 in0.0 mm 0.00 in0.0 mm 0.00 in0.0 mm
09:19 AM 42.3°F5.7°C 32.7°F0.4°C 69% 4.0 mph NNE6.4 kmh NNE -- 29.76 in1007.8 mb 0.00 in0.0 mm 0.00 in0.0 mm 0.00 in0.0 mm
09:24 AM 42.3°F5.7°C 31.6°F-0.2°C 66% 2.0 mph NNW3.2 kmh NNW -- 29.76 in1007.8 mb 0.00 in0.0 mm 0.00 in0.0 mm 0.00 in0.0 mm
09:29 AM 42.5°F5.8°C 31.4°F-0.3°C 65% 6.0 mph WNW9.7 kmh WNW -- 29.76 in1007.8 mb 0.00 in0.0 mm 0.00 in0.0 mm 0.00 in0.0 mm
09:34 AM 42.9°F6.1°C 31.5°F-0.3°C 64% 5.0 mph WNW8.0 kmh WNW -- 29.77 in1008.1 mb 0.00 in0.0 mm 0.00 in0.0 mm 0.00 in0.0 mm
09:39 AM 43.1°F6.2°C 31.7°F-0.2°C 64% 9.0 mph N14.5 kmh N -- 29.77 in1008.1 mb 0.00 in0.0 mm 0.00 in0.0 mm 0.00 in0.0 mm
09:44 AM 43.2°F6.2°C 31.7°F-0.2°C 64% 1.0 mph S1.6 kmh S -- 29.77 in1008.1 mb 0.00 in0.0 mm 0.00 in0.0 mm 0.00 in0.0 mm
09:49 AM 43.3°F6.3°C 32.2°F0.1°C 65% 7.0 mph NW11.3 kmh NW -- 29.77 in1008.1 mb 0.00 in0.0 mm 0.00 in0.0 mm 0.00 in0.0 mm
09:54 AM 43.4°F6.3°C 31.8°F-0.1°C 64% 5.0 mph NNW8.0 kmh NNW -- 29.77 in1008.1 mb 0.00 in0.0 mm 0.00 in0.0 mm 0.00 in0.0 mm
09:59 AM 43.5°F6.4°C 31.6°F-0.2°C 63% 7.0 mph NW11.3 kmh NW -- 29.77 in1008.1 mb 0.00 in0.0 mm 0.00 in0.0 mm 0.00 in0.0 mm
10:04 AM 43.5°F6.4°C 31.2°F-0.4°C 62% 6.0 mph NNW9.7 kmh NNW -- 29.77 in1008.1 mb 0.00 in0.0 mm 0.00 in0.0 mm 0.00 in0.0 mm
10:09 AM 43.7°F6.5°C 31.4°F-0.3°C 62% 4.0 mph WNW6.4 kmh WNW -- 29.77 in1008.1 mb 0.00 in0.0 mm 0.00 in0.0 mm 0.00 in0.0 mm
10:14 AM 43.8°F6.6°C 31.6°F-0.2°C 62% 3.0 mph NE4.8 kmh NE -- 29.77 in1008.1 mb 0.00 in0.0 mm 0.00 in0.0 mm 0.00 in0.0 mm
10:19 AM 44.0°F6.7°C 31.7°F-0.2°C 62% 4.0 mph WNW6.4 kmh WNW -- 29.77 in1008.1 mb 0.00 in0.0 mm 0.00 in0.0 mm 0.00 in0.0 mm
10:24 AM 44.3°F6.8°C 32.3°F0.2°C 63% 11.0 mph WSW17.7 kmh WSW -- 29.77 in1008.1 mb 0.00 in0.0 mm 0.00 in0.0 mm 0.00 in0.0 mm
10:29 AM 44.4°F6.9°C 30.4°F-0.9°C 58% 5.0 mph N8.0 kmh N -- 29.77 in1008.1 mb 0.01 in0.3 mm 0.12 in3.0 mm 0.01 in0.3 mm
10:34 AM 44.5°F6.9°C 30.8°F-0.7°C 59% 3.0 mph NNE4.8 kmh NNE -- 29.77 in1008.1 mb 0.01 in0.3 mm 0.00 in0.0 mm 0.01 in0.3 mm
10:39 AM 44.3°F6.8°C 31.1°F-0.5°C 60% 5.0 mph SW8.0 kmh SW -- 29.78 in1008.5 mb 0.01 in0.3 mm 0.00 in0.0 mm 0.01 in0.3 mm
10:44 AM 44.2°F6.8°C 31.1°F-0.5°C 60% 9.0 mph NNW14.5 kmh NNW -- 29.77 in1008.1 mb 0.01 in0.3 mm 0.00 in0.0 mm 0.01 in0.3 mm
10:49 AM 44.5°F6.9°C 31.3°F-0.4°C 60% 6.0 mph NNE9.7 kmh NNE -- 29.77 in1008.1 mb 0.01 in0.3 mm 0.00 in0.0 mm 0.01 in0.3 mm
10:54 AM 45.0°F7.2°C 31.8°F-0.1°C 60% 7.0 mph N11.3 kmh N -- 29.77 in1008.1 mb 0.01 in0.3 mm 0.00 in0.0 mm 0.01 in0.3 mm
10:59 AM 45.1°F7.3°C 31.5°F-0.3°C 59% 8.0 mph WNW12.9 kmh WNW -- 29.77 in1008.1 mb 0.01 in0.3 mm 0.00 in0.0 mm 0.01 in0.3 mm
11:04 AM 44.8°F7.1°C 30.8°F-0.7°C 58% 7.0 mph NW11.3 kmh NW -- 29.78 in1008.5 mb 0.01 in0.3 mm 0.00 in0.0 mm 0.01 in0.3 mm
11:09 AM 45.3°F7.4°C 31.7°F-0.2°C 59% 7.0 mph NW11.3 kmh NW -- 29.77 in1008.1 mb 0.01 in0.3 mm 0.00 in0.0 mm 0.01 in0.3 mm
11:14 AM 46.0°F7.8°C 31.1°F-0.5°C 56% 16.0 mph NNW25.7 kmh NNW -- 29.77 in1008.1 mb 0.01 in0.3 mm 0.00 in0.0 mm 0.01 in0.3 mm
11:19 AM 45.2°F7.3°C 29.3°F-1.5°C 54% 13.0 mph NNW20.9 kmh NNW -- 29.78 in1008.5 mb 0.00 in0.0 mm 0.00 in0.0 mm 0.01 in0.3 mm
11:24 AM 45.9°F7.7°C 30.9°F-0.6°C 56% 7.0 mph N11.3 kmh N -- 29.77 in1008.1 mb 0.00 in0.0 mm 0.00 in0.0 mm 0.01 in0.3 mm
11:29 AM 45.6°F7.6°C 31.2°F-0.4°C 57% 6.0 mph NE9.7 kmh NE -- 29.77 in1008.1 mb 0.00 in0.0 mm 0.00 in0.0 mm 0.01 in0.3 mm
11:34 AM 45.6°F7.6°C 30.3°F-0.9°C 55% 8.0 mph NNE12.9 kmh NNE -- 29.77 in1008.1 mb 0.00 in0.0 mm 0.00 in0.0 mm 0.01 in0.3 mm
11:39 AM 45.3°F7.4°C 29.0°F-1.7°C 53% 10.0 mph N16.1 kmh N -- 29.77 in1008.1 mb 0.00 in0.0 mm 0.00 in0.0 mm 0.01 in0.3 mm
11:44 AM 45.5°F7.5°C 30.1°F-1.1°C 55% 8.0 mph WNW12.9 kmh WNW -- 29.77 in1008.1 mb 0.00 in0.0 mm 0.00 in0.0 mm 0.01 in0.3 mm
11:49 AM 45.7°F7.6°C 30.3°F-0.9°C 55% 11.0 mph N17.7 kmh N -- 29.77 in1008.1 mb 0.00 in0.0 mm 0.00 in0.0 mm 0.01 in0.3 mm
11:54 AM 45.0°F7.2°C 29.6°F-1.3°C 55% 7.0 mph NNW11.3 kmh NNW -- 29.77 in1008.1 mb 0.00 in0.0 mm 0.00 in0.0 mm 0.01 in0.3 mm
11:59 AM 45.2°F7.3°C 29.3°F-1.5°C 54% 4.0 mph NNE6.4 kmh NNE -- 29.76 in1007.8 mb 0.00 in0.0 mm 0.00 in0.0 mm 0.01 in0.3 mm
12:04 PM 45.1°F7.3°C 29.8°F-1.2°C 55% 8.0 mph NNW12.9 kmh NNW -- 29.76 in1007.8 mb 0.00 in0.0 mm 0.00 in0.0 mm 0.01 in0.3 mm
12:09 PM 45.0°F7.2°C 29.2°F-1.6°C 54% 14.0 mph NW22.5 kmh NW -- 29.76 in1007.8 mb 0.00 in0.0 mm 0.00 in0.0 mm 0.01 in0.3 mm
12:14 PM 45.1°F7.3°C 28.9°F-1.7°C 53% 7.0 mph NW11.3 kmh NW -- 29.76 in1007.8 mb 0.00 in0.0 mm 0.00 in0.0 mm 0.01 in0.3 mm
12:19 PM 45.3°F7.4°C 30.4°F-0.9°C 56% 3.0 mph 4.8 kmh -- 29.76 in1007.8 mb 0.00 in0.0 mm 0.00 in0.0 mm 0.01 in0.3 mm
12:24 PM 45.4°F7.4°C 30.4°F-0.9°C 56% 9.0 mph N14.5 kmh N -- 29.76 in1007.8 mb 0.00 in0.0 mm 0.00 in0.0 mm 0.01 in0.3 mm
12:29 PM 45.3°F7.4°C 29.9°F-1.2°C 55% 10.0 mph NNW16.1 kmh NNW -- 29.76 in1007.8 mb 0.00 in0.0 mm 0.00 in0.0 mm 0.01 in0.3 mm
12:34 PM 45.3°F7.4°C 29.9°F-1.2°C 55% 5.0 mph NW8.0 kmh NW -- 29.76 in1007.8 mb 0.00 in0.0 mm 0.00 in0.0 mm 0.01 in0.3 mm
12:39 PM 45.5°F7.5°C 30.6°F-0.8°C 56% 6.0 mph N9.7 kmh N -- 29.76 in1007.8 mb 0.00 in0.0 mm 0.00 in0.0 mm 0.01 in0.3 mm
12:44 PM 45.4°F7.4°C 29.5°F-1.4°C 54% 8.0 mph NE12.9 kmh NE -- 29.76 in1007.8 mb 0.00 in0.0 mm 0.00 in0.0 mm 0.01 in0.3 mm
12:49 PM 46.0°F7.8°C 29.2°F-1.6°C 52% 13.0 mph NW20.9 kmh NW -- 29.76 in1007.8 mb 0.00 in0.0 mm 0.00 in0.0 mm 0.01 in0.3 mm
12:54 PM 46.0°F7.8°C 30.6°F-0.8°C 55% 21.0 mph NW33.8 kmh NW -- 29.76 in1007.8 mb 0.00 in0.0 mm 0.00 in0.0 mm 0.01 in0.3 mm
12:59 PM 45.8°F7.7°C 29.5°F-1.4°C 53% 9.0 mph WNW14.5 kmh WNW -- 29.76 in1007.8 mb 0.00 in0.0 mm 0.00 in0.0 mm 0.01 in0.3 mm
01:04 PM 45.4°F7.4°C 29.5°F-1.4°C 54% 16.0 mph WNW25.7 kmh WNW -- 29.76 in1007.8 mb 0.00 in0.0 mm 0.00 in0.0 mm 0.01 in0.3 mm
01:09 PM 45.2°F7.3°C 29.8°F-1.2°C 55% 9.0 mph N14.5 kmh N -- 29.77 in1008.1 mb 0.00 in0.0 mm 0.00 in0.0 mm 0.01 in0.3 mm
01:14 PM 45.4°F7.4°C 30.4°F-0.9°C 56% 3.0 mph E4.8 kmh E -- 29.76 in1007.8 mb 0.00 in0.0 mm 0.00 in0.0 mm 0.01 in0.3 mm
01:19 PM 45.4°F7.4°C 29.5°F-1.4°C 54% 8.0 mph N12.9 kmh N -- 29.76 in1007.8 mb 0.00 in0.0 mm 0.00 in0.0 mm 0.01 in0.3 mm
01:24 PM 45.5°F7.5°C 29.7°F-1.3°C 54% 9.0 mph NNW14.5 kmh NNW -- 29.76 in1007.8 mb 0.00 in0.0 mm 0.00 in0.0 mm 0.01 in0.3 mm
01:29 PM 45.4°F7.4°C 30.4°F-0.9°C 56% 7.0 mph WNW11.3 kmh WNW -- 29.77 in1008.1 mb 0.00 in0.0 mm 0.00 in0.0 mm 0.01 in0.3 mm
01:34 PM 45.3°F7.4°C 30.4°F-0.9°C 56% 17.0 mph WNW27.4 kmh WNW -- 29.76 in1007.8 mb 0.00 in0.0 mm 0.00 in0.0 mm 0.01 in0.3 mm
01:39 PM 45.4°F7.4°C 30.4°F-0.9°C 56% 9.0 mph N14.5 kmh N -- 29.76 in1007.8 mb 0.00 in0.0 mm 0.00 in0.0 mm 0.01 in0.3 mm
01:44 PM 44.7°F7.1°C 30.8°F-0.7°C 58% 14.0 mph NW22.5 kmh NW -- 29.77 in1008.1 mb 0.00 in0.0 mm 0.00 in0.0 mm 0.01 in0.3 mm
01:49 PM 45.3°F7.4°C 30.4°F-0.9°C 56% 16.0 mph E25.7 kmh E -- 29.76 in1007.8 mb 0.00 in0.0 mm 0.00 in0.0 mm 0.01 in0.3 mm
01:54 PM 45.6°F7.6°C 30.7°F-0.7°C 56% 8.0 mph N12.9 kmh N -- 29.76 in1007.8 mb 0.00 in0.0 mm 0.00 in0.0 mm 0.01 in0.3 mm
01:59 PM 45.1°F7.3°C 29.8°F-1.2°C 55% 18.0 mph NNW29.0 kmh NNW -- 29.76 in1007.8 mb 0.00 in0.0 mm 0.00 in0.0 mm 0.01 in0.3 mm
02:04 PM 44.9°F7.2°C 30.9°F-0.6°C 58% 7.0 mph NW11.3 kmh NW -- 29.76 in1007.8 mb 0.00 in0.0 mm 0.00 in0.0 mm 0.01 in0.3 mm
02:09 PM 44.6°F7.0°C 29.7°F-1.3°C 56% 10.0 mph NW16.1 kmh NW -- 29.76 in1007.8 mb 0.00 in0.0 mm 0.00 in0.0 mm 0.01 in0.3 mm
02:14 PM 45.0°F7.2°C 30.5°F-0.8°C 57% 12.0 mph WSW19.3 kmh WSW -- 29.76 in1007.8 mb 0.00 in0.0 mm 0.00 in0.0 mm 0.01 in0.3 mm
02:19 PM 45.1°F7.3°C 29.8°F-1.2°C 55% 11.0 mph WNW17.7 kmh WNW -- 29.77 in1008.1 mb 0.00 in0.0 mm 0.00 in0.0 mm 0.01 in0.3 mm
02:24 PM 44.8°F7.1°C 29.4°F-1.4°C 55% 7.0 mph N11.3 kmh N -- 29.77 in1008.1 mb 0.00 in0.0 mm 0.00 in0.0 mm 0.01 in0.3 mm
02:29 PM 44.7°F7.1°C 30.3°F-0.9°C 57% 13.0 mph N20.9 kmh N -- 29.77 in1008.1 mb 0.00 in0.0 mm 0.00 in0.0 mm 0.01 in0.3 mm
02:34 PM 44.9°F7.2°C 30.1°F-1.1°C 56% 4.0 mph NW6.4 kmh NW -- 29.77 in1008.1 mb 0.00 in0.0 mm 0.00 in0.0 mm 0.01 in0.3 mm
02:39 PM 44.9°F7.2°C 29.6°F-1.3°C 55% 5.0 mph WNW8.0 kmh WNW -- 29.78 in1008.5 mb 0.00 in0.0 mm 0.00 in0.0 mm 0.01 in0.3 mm
02:44 PM 45.0°F7.2°C 30.1°F-1.1°C 56% 16.0 mph W25.7 kmh W -- 29.77 in1008.1 mb 0.00 in0.0 mm 0.00 in0.0 mm 0.01 in0.3 mm
02:49 PM 44.9°F7.2°C 30.5°F-0.8°C 57% 8.0 mph W12.9 kmh W -- 29.78 in1008.5 mb 0.00 in0.0 mm 0.00 in0.0 mm 0.01 in0.3 mm
02:54 PM 45.3°F7.4°C 30.4°F-0.9°C 56% 6.0 mph NNE9.7 kmh NNE -- 29.78 in1008.5 mb 0.00 in0.0 mm 0.00 in0.0 mm 0.01 in0.3 mm
02:59 PM 45.8°F7.7°C 30.0°F-1.1°C 54% 7.0 mph N11.3 kmh N -- 29.78 in1008.5 mb 0.00 in0.0 mm 0.00 in0.0 mm 0.01 in0.3 mm
03:04 PM 45.9°F7.7°C 30.0°F-1.1°C 54% 7.0 mph NNW11.3 kmh NNW -- 29.78 in1008.5 mb 0.00 in0.0 mm 0.00 in0.0 mm 0.01 in0.3 mm
03:09 PM 45.4°F7.4°C 29.0°F-1.7°C 53% 15.0 mph N24.1 kmh N -- 29.78 in1008.5 mb 0.00 in0.0 mm 0.00 in0.0 mm 0.01 in0.3 mm
03:14 PM 45.3°F7.4°C 29.5°F-1.4°C 54% 7.0 mph N11.3 kmh N -- 29.78 in1008.5 mb 0.00 in0.0 mm 0.00 in0.0 mm 0.01 in0.3 mm
03:19 PM 45.2°F7.3°C 29.8°F-1.2°C 55% 11.0 mph N17.7 kmh N -- 29.79 in1008.8 mb 0.00 in0.0 mm 0.00 in0.0 mm 0.01 in0.3 mm
03:24 PM 45.3°F7.4°C 29.5°F-1.4°C 54% 4.0 mph E6.4 kmh E -- 29.79 in1008.8 mb 0.00 in0.0 mm 0.00 in0.0 mm 0.01 in0.3 mm
03:29 PM 45.5°F7.5°C 29.7°F-1.3°C 54% 3.0 mph NNW4.8 kmh NNW -- 29.79 in1008.8 mb 0.00 in0.0 mm 0.00 in0.0 mm 0.01 in0.3 mm
03:34 PM 45.7°F7.6°C 29.8°F-1.2°C 54% 9.0 mph NW14.5 kmh NW -- 29.79 in1008.8 mb 0.00 in0.0 mm 0.00 in0.0 mm 0.01 in0.3 mm
03:39 PM 45.6°F7.6°C 30.3°F-0.9°C 55% 4.0 mph N6.4 kmh N -- 29.79 in1008.8 mb 0.00 in0.0 mm 0.00 in0.0 mm 0.01 in0.3 mm
03:44 PM 45.5°F7.5°C 29.2°F-1.6°C 53% 8.0 mph NW12.9 kmh NW -- 29.79 in1008.8 mb 0.00 in0.0 mm 0.00 in0.0 mm 0.01 in0.3 mm
03:49 PM 45.3°F7.4°C 29.5°F-1.4°C 54% 8.0 mph N12.9 kmh N -- 29.80 in1009.1 mb 0.00 in0.0 mm 0.00 in0.0 mm 0.01 in0.3 mm
03:54 PM 45.2°F7.3°C 29.3°F-1.5°C 54% 14.0 mph NNW22.5 kmh NNW -- 29.80 in1009.1 mb 0.00 in0.0 mm 0.00 in0.0 mm 0.01 in0.3 mm
03:59 PM 45.0°F7.2°C 29.6°F-1.3°C 55% 6.0 mph NNW9.7 kmh NNW -- 29.80 in1009.1 mb 0.00 in0.0 mm 0.00 in0.0 mm 0.01 in0.3 mm
04:04 PM 45.0°F7.2°C 29.6°F-1.3°C 55% 9.0 mph NW14.5 kmh NW -- 29.80 in1009.1 mb 0.00 in0.0 mm 0.00 in0.0 mm 0.01 in0.3 mm
04:09 PM 45.0°F7.2°C 29.6°F-1.3°C 55% 6.0 mph SW9.7 kmh SW -- 29.80 in1009.1 mb 0.00 in0.0 mm 0.00 in0.0 mm 0.01 in0.3 mm
04:14 PM 44.8°F7.1°C 30.3°F-0.9°C 57% 4.0 mph S6.4 kmh S -- 29.81 in1009.5 mb 0.00 in0.0 mm 0.00 in0.0 mm 0.01 in0.3 mm
04:19 PM 44.8°F7.1°C 29.9°F-1.2°C 56% 7.0 mph N11.3 kmh N -- 29.81 in1009.5 mb 0.00 in0.0 mm 0.00 in0.0 mm 0.01 in0.3 mm
04:24 PM 44.6°F7.0°C 29.7°F-1.3°C 56% 7.0 mph NNW11.3 kmh NNW -- 29.81 in1009.5 mb 0.00 in0.0 mm 0.00 in0.0 mm 0.01 in0.3 mm
04:29 PM 44.8°F7.1°C 29.9°F-1.2°C 56% 5.0 mph NW8.0 kmh NW -- 29.81 in1009.5 mb 0.00 in0.0 mm 0.00 in0.0 mm 0.01 in0.3 mm
04:34 PM 44.7°F7.1°C 29.9°F-1.2°C 56% 9.0 mph SW14.5 kmh SW -- 29.81 in1009.5 mb 0.00 in0.0 mm 0.00 in0.0 mm 0.01 in0.3 mm
04:39 PM 44.7°F7.1°C 30.3°F-0.9°C 57% 4.0 mph N6.4 kmh N -- 29.81 in1009.5 mb 0.00 in0.0 mm 0.00 in0.0 mm 0.01 in0.3 mm
04:44 PM 44.4°F6.9°C 30.4°F-0.9°C 58% 14.0 mph NNW22.5 kmh NNW -- 29.81 in1009.5 mb 0.00 in0.0 mm 0.00 in0.0 mm 0.01 in0.3 mm
04:49 PM 44.4°F6.9°C 30.0°F-1.1°C 57% 8.0 mph NNW12.9 kmh NNW -- 29.82 in1009.8 mb 0.00 in0.0 mm 0.00 in0.0 mm 0.01 in0.3 mm
04:54 PM 44.2°F6.8°C 29.8°F-1.2°C 57% 3.0 mph NE4.8 kmh NE -- 29.82 in1009.8 mb 0.00 in0.0 mm 0.00 in0.0 mm 0.01 in0.3 mm
04:59 PM 43.9°F6.6°C 30.3°F-0.9°C 59% 10.0 mph NW16.1 kmh NW -- 29.82 in1009.8 mb 0.00 in0.0 mm 0.00 in0.0 mm 0.01 in0.3 mm
05:04 PM 43.8°F6.6°C 29.9°F-1.2°C 58% 5.0 mph NNW8.0 kmh NNW -- 29.82 in1009.8 mb 0.00 in0.0 mm 0.00 in0.0 mm 0.01 in0.3 mm
05:09 PM 43.8°F6.6°C 30.3°F-0.9°C 59% 4.0 mph NW6.4 kmh NW -- 29.83 in1010.2 mb 0.00 in0.0 mm 0.00 in0.0 mm 0.01 in0.3 mm
05:14 PM 43.4°F6.3°C 30.2°F-1.0°C 60% 2.0 mph N3.2 kmh N -- 29.83 in1010.2 mb 0.00 in0.0 mm 0.00 in0.0 mm 0.01 in0.3 mm
05:19 PM 43.1°F6.2°C 30.1°F-1.1°C 60% 3.0 mph N4.8 kmh N -- 29.83 in1010.2 mb 0.00 in0.0 mm 0.00 in0.0 mm 0.01 in0.3 mm
05:24 PM 43.0°F6.1°C 29.9°F-1.2°C 60% 6.0 mph N9.7 kmh N -- 29.83 in1010.2 mb 0.00 in0.0 mm 0.00 in0.0 mm 0.01 in0.3 mm
05:29 PM 42.9°F6.1°C 30.3°F-0.9°C 61% 5.0 mph N8.0 kmh N -- 29.83 in1010.2 mb 0.00 in0.0 mm 0.00 in0.0 mm 0.01 in0.3 mm
05:34 PM 42.7°F5.9°C 29.6°F-1.3°C 60% 4.0 mph NE6.4 kmh NE -- 29.83 in1010.2 mb 0.00 in0.0 mm 0.00 in0.0 mm 0.01 in0.3 mm
05:39 PM 42.5°F5.8°C 29.4°F-1.4°C 60% 9.0 mph WSW14.5 kmh WSW -- 29.84 in1010.5 mb 0.00 in0.0 mm 0.00 in0.0 mm 0.01 in0.3 mm
05:44 PM 42.4°F5.8°C 30.2°F-1.0°C 62% 4.0 mph NW6.4 kmh NW -- 29.84 in1010.5 mb 0.00 in0.0 mm 0.00 in0.0 mm 0.01 in0.3 mm
05:49 PM 42.3°F5.7°C 29.6°F-1.3°C 61% 6.0 mph N9.7 kmh N -- 29.84 in1010.5 mb 0.00 in0.0 mm 0.00 in0.0 mm 0.01 in0.3 mm
05:54 PM 42.4°F5.8°C 29.8°F-1.2°C 61% 6.0 mph N9.7 kmh N -- 29.84 in1010.5 mb 0.00 in0.0 mm 0.00 in0.0 mm 0.01 in0.3 mm
05:59 PM 42.2°F5.7°C 29.6°F-1.3°C 61% 12.0 mph NNW19.3 kmh NNW -- 29.85 in1010.8 mb 0.00 in0.0 mm 0.00 in0.0 mm 0.01 in0.3 mm
06:04 PM 42.1°F5.6°C 29.5°F-1.4°C 61% 12.0 mph WNW19.3 kmh WNW -- 29.85 in1010.8 mb 0.00 in0.0 mm 0.00 in0.0 mm 0.01 in0.3 mm
06:09 PM 42.1°F5.6°C 29.5°F-1.4°C 61% 9.0 mph NW14.5 kmh NW -- 29.86 in1011.2 mb 0.00 in0.0 mm 0.00 in0.0 mm 0.01 in0.3 mm
06:14 PM 42.1°F5.6°C 29.5°F-1.4°C 61% 5.0 mph NNW8.0 kmh NNW -- 29.86 in1011.2 mb 0.00 in0.0 mm 0.00 in0.0 mm 0.01 in0.3 mm
06:19 PM 41.9°F5.5°C 29.7°F-1.3°C 62% 4.0 mph NNW6.4 kmh NNW -- 29.85 in1010.8 mb 0.00 in0.0 mm 0.00 in0.0 mm 0.01 in0.3 mm
06:24 PM 41.8°F5.4°C 29.5°F-1.4°C 62% 3.0 mph WNW4.8 kmh WNW -- 29.85 in1010.8 mb 0.00 in0.0 mm 0.00 in0.0 mm 0.01 in0.3 mm
06:29 PM 42.0°F5.6°C 29.5°F-1.4°C 61% 7.0 mph NE11.3 kmh NE -- 29.85 in1010.8 mb 0.00 in0.0 mm 0.00 in0.0 mm 0.01 in0.3 mm
06:34 PM 41.9°F5.5°C 29.7°F-1.3°C 62% 3.0 mph NW4.8 kmh NW -- 29.85 in1010.8 mb 0.00 in0.0 mm 0.00 in0.0 mm 0.01 in0.3 mm
06:39 PM 41.7°F5.4°C 29.5°F-1.4°C 62% 7.0 mph NW11.3 kmh NW -- 29.86 in1011.2 mb 0.00 in0.0 mm 0.00 in0.0 mm 0.01 in0.3 mm
06:44 PM 41.5°F5.3°C 29.7°F-1.3°C 63% 2.0 mph NW3.2 kmh NW -- 29.86 in1011.2 mb 0.00 in0.0 mm 0.00 in0.0 mm 0.01 in0.3 mm
06:49 PM 41.2°F5.1°C 29.4°F-1.4°C 63% 4.0 mph N6.4 kmh N -- 29.86 in1011.2 mb 0.00 in0.0 mm 0.00 in0.0 mm 0.01 in0.3 mm
06:54 PM 41.1°F5.1°C 29.8°F-1.2°C 64% 4.0 mph NW6.4 kmh NW -- 29.86 in1011.2 mb 0.00 in0.0 mm 0.00 in0.0 mm 0.01 in0.3 mm
06:59 PM 41.1°F5.1°C 29.8°F-1.2°C 64% 9.0 mph NW14.5 kmh NW -- 29.85 in1010.8 mb 0.00 in0.0 mm 0.00 in0.0 mm 0.01 in0.3 mm
07:04 PM 41.1°F5.1°C 29.8°F-1.2°C 64% 3.0 mph NNW4.8 kmh NNW -- 29.85 in1010.8 mb 0.00 in0.0 mm 0.00 in0.0 mm 0.01 in0.3 mm
07:09 PM 41.1°F5.1°C 29.8°F-1.2°C 64% 10.0 mph NNE16.1 kmh NNE -- 29.85 in1010.8 mb 0.00 in0.0 mm 0.00 in0.0 mm 0.01 in0.3 mm
07:14 PM 41.3°F5.2°C 30.0°F-1.1°C 64% 9.0 mph WNW14.5 kmh WNW -- 29.86 in1011.2 mb 0.00 in0.0 mm 0.00 in0.0 mm 0.01 in0.3 mm
07:19 PM 41.2°F5.1°C 29.8°F-1.2°C 64% 9.0 mph NW14.5 kmh NW -- 29.85 in1010.8 mb 0.00 in0.0 mm 0.00 in0.0 mm 0.01 in0.3 mm
07:24 PM 41.2°F5.1°C 29.8°F-1.2°C 64% 7.0 mph WSW11.3 kmh WSW -- 29.86 in1011.2 mb 0.00 in0.0 mm 0.00 in0.0 mm 0.01 in0.3 mm
07:29 PM 41.2°F5.1°C 29.8°F-1.2°C 64% 4.0 mph SW6.4 kmh SW -- 29.85 in1010.8 mb 0.00 in0.0 mm 0.00 in0.0 mm 0.01 in0.3 mm
07:34 PM 40.9°F4.9°C 29.5°F-1.4°C 64% 7.0 mph NNW11.3 kmh NNW -- 29.85 in1010.8 mb 0.00 in0.0 mm 0.00 in0.0 mm 0.01 in0.3 mm
07:39 PM 40.9°F4.9°C 29.1°F-1.6°C 63% 9.0 mph NW14.5 kmh NW -- 29.86 in1011.2 mb 0.00 in0.0 mm 0.00 in0.0 mm 0.01 in0.3 mm
07:44 PM 41.0°F5.0°C 29.6°F-1.3°C 64% 4.0 mph NNW6.4 kmh NNW -- 29.86 in1011.2 mb 0.00 in0.0 mm 0.00 in0.0 mm 0.01 in0.3 mm
07:49 PM 40.9°F4.9°C 29.5°F-1.4°C 64% 1.0 mph SSE1.6 kmh SSE -- 29.87 in1011.5 mb 0.00 in0.0 mm 0.00 in0.0 mm 0.01 in0.3 mm
07:54 PM 40.8°F4.9°C 29.5°F-1.4°C 64% 8.0 mph NW12.9 kmh NW -- 29.87 in1011.5 mb 0.00 in0.0 mm 0.00 in0.0 mm 0.01 in0.3 mm
07:59 PM 40.6°F4.8°C 30.0°F-1.1°C 66% 5.0 mph 8.0 kmh -- 29.87 in1011.5 mb 0.00 in0.0 mm 0.00 in0.0 mm 0.01 in0.3 mm
08:04 PM 40.5°F4.7°C 29.9°F-1.2°C 66% 5.0 mph NNW8.0 kmh NNW -- 29.87 in1011.5 mb 0.00 in0.0 mm 0.00 in0.0 mm 0.01 in0.3 mm
08:09 PM 40.7°F4.8°C 29.7°F-1.3°C 65% 3.0 mph N4.8 kmh N -- 29.87 in1011.5 mb 0.00 in0.0 mm 0.00 in0.0 mm 0.01 in0.3 mm
08:14 PM 40.7°F4.8°C 29.7°F-1.3°C 65% 7.0 mph NNE11.3 kmh NNE -- 29.87 in1011.5 mb 0.00 in0.0 mm 0.00 in0.0 mm 0.01 in0.3 mm
08:19 PM 40.6°F4.8°C 29.7°F-1.3°C 65% 5.0 mph SSW8.0 kmh SSW -- 29.87 in1011.5 mb 0.00 in0.0 mm 0.00 in0.0 mm 0.01 in0.3 mm
08:24 PM 40.5°F4.7°C 29.9°F-1.2°C 66% 7.0 mph NW11.3 kmh NW -- 29.87 in1011.5 mb 0.00 in0.0 mm 0.00 in0.0 mm 0.01 in0.3 mm
08:29 PM 40.6°F4.8°C 29.3°F-1.5°C 64% 4.0 mph NNW6.4 kmh NNW -- 29.87 in1011.5 mb 0.00 in0.0 mm 0.00 in0.0 mm 0.01 in0.3 mm
08:34 PM 40.8°F4.9°C 29.8°F-1.2°C 65% 4.0 mph WSW6.4 kmh WSW -- 29.87 in1011.5 mb 0.00 in0.0 mm 0.00 in0.0 mm 0.01 in0.3 mm
08:39 PM 40.8°F4.9°C 29.5°F-1.4°C 64% 8.0 mph WSW12.9 kmh WSW -- 29.87 in1011.5 mb 0.00 in0.0 mm 0.00 in0.0 mm 0.01 in0.3 mm
08:44 PM 40.7°F4.8°C 29.3°F-1.5°C 64% 5.0 mph N8.0 kmh N -- 29.88 in1011.9 mb 0.00 in0.0 mm 0.00 in0.0 mm 0.01 in0.3 mm
08:49 PM 40.6°F4.8°C 29.7°F-1.3°C 65% 4.0 mph N6.4 kmh N -- 29.88 in1011.9 mb 0.00 in0.0 mm 0.00 in0.0 mm 0.01 in0.3 mm
08:54 PM 40.7°F4.8°C 29.7°F-1.3°C 65% 4.0 mph N6.4 kmh N -- 29.88 in1011.9 mb 0.00 in0.0 mm 0.00 in0.0 mm 0.01 in0.3 mm
08:59 PM 40.8°F4.9°C 29.8°F-1.2°C 65% 3.0 mph WSW4.8 kmh WSW -- 29.88 in1011.9 mb 0.00 in0.0 mm 0.00 in0.0 mm 0.01 in0.3 mm
09:04 PM 40.9°F4.9°C 30.2°F-1.0°C 66% 3.0 mph N4.8 kmh N -- 29.89 in1012.2 mb 0.00 in0.0 mm 0.00 in0.0 mm 0.01 in0.3 mm
09:09 PM 40.8°F4.9°C 29.8°F-1.2°C 65% 9.0 mph WNW14.5 kmh WNW -- 29.89 in1012.2 mb 0.00 in0.0 mm 0.00 in0.0 mm 0.01 in0.3 mm
09:14 PM 41.0°F5.0°C 30.0°F-1.1°C 65% 10.0 mph NNW16.1 kmh NNW -- 29.89 in1012.2 mb 0.00 in0.0 mm 0.00 in0.0 mm 0.01 in0.3 mm
09:19 PM 41.0°F5.0°C 30.0°F-1.1°C 65% 5.0 mph NW8.0 kmh NW -- 29.89 in1012.2 mb 0.00 in0.0 mm 0.00 in0.0 mm 0.01 in0.3 mm
09:24 PM 40.9°F4.9°C 29.8°F-1.2°C 65% 4.0 mph WSW6.4 kmh WSW -- 29.89 in1012.2 mb 0.00 in0.0 mm 0.00 in0.0 mm 0.01 in0.3 mm
09:29 PM 41.1°F5.1°C 30.2°F-1.0°C 65% 6.0 mph NNW9.7 kmh NNW -- 29.89 in1012.2 mb 0.00 in0.0 mm 0.00 in0.0 mm 0.01 in0.3 mm
09:34 PM 41.1°F5.1°C 29.8°F-1.2°C 64% 3.0 mph NNE4.8 kmh NNE -- 29.89 in1012.2 mb 0.00 in0.0 mm 0.00 in0.0 mm 0.01 in0.3 mm
09:39 PM 41.0°F5.0°C 29.6°F-1.3°C 64% 3.0 mph NE4.8 kmh NE -- 29.89 in1012.2 mb 0.00 in0.0 mm 0.00 in0.0 mm 0.01 in0.3 mm
09:44 PM 41.0°F5.0°C 30.0°F-1.1°C 65% 4.0 mph NE6.4 kmh NE -- 29.89 in1012.2 mb 0.00 in0.0 mm 0.00 in0.0 mm 0.01 in0.3 mm
09:49 PM 41.1°F5.1°C 29.8°F-1.2°C 64% 4.0 mph NNW6.4 kmh NNW -- 29.89 in1012.2 mb 0.00 in0.0 mm 0.00 in0.0 mm 0.01 in0.3 mm
09:54 PM 41.2°F5.1°C 29.8°F-1.2°C 64% 10.0 mph NW16.1 kmh NW -- 29.90 in1012.5 mb 0.00 in0.0 mm 0.00 in0.0 mm 0.01 in0.3 mm
09:59 PM 41.2°F5.1°C 29.8°F-1.2°C 64% 4.0 mph N6.4 kmh N -- 29.90 in1012.5 mb 0.00 in0.0 mm 0.00 in0.0 mm 0.01 in0.3 mm
10:04 PM 41.3°F5.2°C 29.6°F-1.3°C 63% 6.0 mph N9.7 kmh N -- 29.90 in1012.5 mb 0.00 in0.0 mm 0.00 in0.0 mm 0.01 in0.3 mm
10:09 PM 41.2°F5.1°C 29.4°F-1.4°C 63% 5.0 mph NNW8.0 kmh NNW -- 29.90 in1012.5 mb 0.00 in0.0 mm 0.00 in0.0 mm 0.01 in0.3 mm
10:14 PM 41.1°F5.1°C 29.8°F-1.2°C 64% 6.0 mph NW9.7 kmh NW -- 29.89 in1012.2 mb 0.00 in0.0 mm 0.00 in0.0 mm 0.01 in0.3 mm
10:19 PM 41.1°F5.1°C 29.4°F-1.4°C 63% 11.0 mph NW17.7 kmh NW -- 29.90 in1012.5 mb 0.00 in0.0 mm 0.00 in0.0 mm 0.01 in0.3 mm
10:24 PM 41.0°F5.0°C 29.2°F-1.6°C 63% 4.0 mph N6.4 kmh N -- 29.89 in1012.2 mb 0.00 in0.0 mm 0.00 in0.0 mm 0.01 in0.3 mm
10:29 PM 41.1°F5.1°C 29.0°F-1.7°C 62% 9.0 mph NNW14.5 kmh NNW -- 29.89 in1012.2 mb 0.00 in0.0 mm 0.00 in0.0 mm 0.01 in0.3 mm
10:34 PM 41.1°F5.1°C 29.4°F-1.4°C 63% 8.0 mph WNW12.9 kmh WNW -- 29.90 in1012.5 mb 0.00 in0.0 mm 0.00 in0.0 mm 0.01 in0.3 mm
10:39 PM 40.9°F4.9°C 29.1°F-1.6°C 63% 5.0 mph WNW8.0 kmh WNW -- 29.89 in1012.2 mb 0.00 in0.0 mm 0.00 in0.0 mm 0.01 in0.3 mm
10:44 PM 40.7°F4.8°C 28.9°F-1.7°C 63% 7.0 mph NNW11.3 kmh NNW -- 29.90 in1012.5 mb 0.00 in0.0 mm 0.00 in0.0 mm 0.01 in0.3 mm
10:49 PM 40.7°F4.8°C 28.9°F-1.7°C 63% 3.0 mph NW4.8 kmh NW -- 29.90 in1012.5 mb 0.00 in0.0 mm 0.00 in0.0 mm 0.01 in0.3 mm
10:54 PM 40.5°F4.7°C 28.7°F-1.8°C 63% 5.0 mph NNW8.0 kmh NNW -- 29.90 in1012.5 mb 0.00 in0.0 mm 0.00 in0.0 mm 0.01 in0.3 mm
10:59 PM 40.5°F4.7°C 28.3°F-2.1°C 62% 12.0 mph NW19.3 kmh NW -- 29.90 in1012.5 mb 0.00 in0.0 mm 0.00 in0.0 mm 0.01 in0.3 mm
11:04 PM 40.6°F4.8°C 28.9°F-1.7°C 63% 6.0 mph N9.7 kmh N -- 29.90 in1012.5 mb 0.00 in0.0 mm 0.00 in0.0 mm 0.01 in0.3 mm
11:09 PM 40.3°F4.6°C 28.5°F-1.9°C 63% 6.0 mph SW9.7 kmh SW -- 29.90 in1012.5 mb 0.00 in0.0 mm 0.00 in0.0 mm 0.01 in0.3 mm
11:14 PM 40.2°F4.6°C 28.9°F-1.7°C 64% 7.0 mph NNW11.3 kmh NNW -- 29.90 in1012.5 mb 0.00 in0.0 mm 0.00 in0.0 mm 0.01 in0.3 mm
11:19 PM 40.2°F4.6°C 28.5°F-1.9°C 63% 5.0 mph W8.0 kmh W -- 29.89 in1012.2 mb 0.00 in0.0 mm 0.00 in0.0 mm 0.01 in0.3 mm
11:24 PM 40.2°F4.6°C 28.5°F-1.9°C 63% 4.0 mph NW6.4 kmh NW -- 29.89 in1012.2 mb 0.00 in0.0 mm 0.00 in0.0 mm 0.01 in0.3 mm
11:29 PM 40.0°F4.4°C 28.2°F-2.1°C 63% 2.0 mph S3.2 kmh S -- 29.89 in1012.2 mb 0.00 in0.0 mm 0.00 in0.0 mm 0.01 in0.3 mm
11:34 PM 39.8°F4.3°C 28.4°F-2.0°C 64% 4.0 mph NW6.4 kmh NW -- 29.88 in1011.9 mb 0.00 in0.0 mm 0.00 in0.0 mm 0.01 in0.3 mm
11:39 PM 39.3°F4.1°C 28.5°F-1.9°C 65% 3.0 mph NNW4.8 kmh NNW -- 29.88 in1011.9 mb 0.00 in0.0 mm 0.00 in0.0 mm 0.01 in0.3 mm
11:44 PM 39.4°F4.1°C 28.1°F-2.2°C 64% 4.0 mph NW6.4 kmh NW -- 29.88 in1011.9 mb 0.00 in0.0 mm 0.00 in0.0 mm 0.01 in0.3 mm
11:49 PM 39.4°F4.1°C 28.5°F-1.9°C 65% 4.0 mph NW6.4 kmh NW -- 29.88 in1011.9 mb 0.00 in0.0 mm 0.00 in0.0 mm 0.01 in0.3 mm
11:54 PM 39.4°F4.1°C 28.1°F-2.2°C 64% 5.0 mph NNW8.0 kmh NNW -- 29.87 in1011.5 mb 0.00 in0.0 mm 0.00 in0.0 mm 0.01 in0.3 mm
11:59 PM 39.4°F4.1°C 28.5°F-1.9°C 65% 2.0 mph SE3.2 kmh SE -- 29.87 in1011.5 mb 0.00 in0.0 mm 0.00 in0.0 mm 0.01 in0.3 mm